createdAt,value
2022-12-09T00:01:29.722Z,17.10
2022-12-09T00:03:57.114Z,15.27
2022-12-09T00:06:29.237Z,14.43
2022-12-09T00:08:57.629Z,15.00
2022-12-09T00:11:26.207Z,14.93
2022-12-09T00:13:55.316Z,17.20
2022-12-09T00:16:23.454Z,16.00
2022-12-09T00:18:50.977Z,13.97
2022-12-09T00:21:32.375Z,13.43
2022-12-09T00:24:02.908Z,15.50
2022-12-09T00:26:30.017Z,15.33
2022-12-09T00:28:57.667Z,13.73
2022-12-09T00:31:29.265Z,13.43
2022-12-09T00:33:58.405Z,12.73
2022-12-09T00:36:26.362Z,12.60
2022-12-09T00:38:55.105Z,15.03
2022-12-09T00:41:22.498Z,12.40
2022-12-09T00:43:49.603Z,13.47
2022-12-09T00:46:17.090Z,12.57
2022-12-09T00:48:48.162Z,12.37
2022-12-09T00:51:19.215Z,11.23
2022-12-09T00:53:47.646Z,12.70
2022-12-09T00:56:15.197Z,13.43
2022-12-09T00:58:42.415Z,12.53
2022-12-09T01:01:09.737Z,10.63
2022-12-09T01:03:37.058Z,11.77
2022-12-09T01:06:13.002Z,13.03
2022-12-09T01:08:40.428Z,13.17
2022-12-09T01:11:14.906Z,11.63
2022-12-09T01:13:42.370Z,10.73
2022-12-09T01:16:27.512Z,11.27
2022-12-09T01:18:57.563Z,11.33
2022-12-09T01:21:25.046Z,10.50
2022-12-09T01:23:52.577Z,11.80
2022-12-09T01:26:20.267Z,12.10
2022-12-09T01:28:51.303Z,12.73
2022-12-09T01:31:21.067Z,13.40
2022-12-09T01:33:48.656Z,12.53
2022-12-09T01:36:20.319Z,11.57
2022-12-09T01:38:48.613Z,13.30
2022-12-09T01:41:17.439Z,13.33
2022-12-09T01:43:45.312Z,13.10
2022-12-09T01:46:12.441Z,13.17
2022-12-09T01:48:43.482Z,11.47
2022-12-09T01:51:19.777Z,13.83
2022-12-09T01:53:50.355Z,11.83
2022-12-09T01:56:25.052Z,11.50
2022-12-09T01:58:54.323Z,12.50
2022-12-09T02:01:22.520Z,12.57
2022-12-09T02:03:50.408Z,16.07
2022-12-09T02:06:17.944Z,13.70
2022-12-09T02:08:46.822Z,13.37
2022-12-09T02:11:49.340Z,14.20
2022-12-09T02:14:25.812Z,14.90
2022-12-09T02:17:06.178Z,13.63
2022-12-09T02:20:17.983Z,14.10
2022-12-09T02:22:58.503Z,13.80
2022-12-09T02:25:48.146Z,14.93
2022-12-09T02:28:42.229Z,15.47
2022-12-09T02:31:34.616Z,14.60
2022-12-09T02:34:15.997Z,15.23
2022-12-09T02:36:59.659Z,16.07
2022-12-09T02:39:33.599Z,17.80
2022-12-09T02:42:03.894Z,16.97
2022-12-09T02:44:31.978Z,15.93
2022-12-09T02:47:00.386Z,16.03
2022-12-09T02:49:30.350Z,17.60
2022-12-09T02:51:58.820Z,17.60
2022-12-09T02:54:30.188Z,19.60
2022-12-09T02:57:00.993Z,19.47
2022-12-09T02:59:28.341Z,20.17
2022-12-09T03:02:12.332Z,18.03
2022-12-09T03:04:43.543Z,21.10
2022-12-09T03:07:31.009Z,18.23
2022-12-09T03:10:16.527Z,18.40
2022-12-09T03:12:50.210Z,18.33
2022-12-09T03:15:21.117Z,20.07
2022-12-09T03:17:49.304Z,18.20
2022-12-09T03:20:20.858Z,16.60
2022-12-09T03:22:50.410Z,15.90
2022-12-09T03:25:22.132Z,16.37
2022-12-09T03:27:57.826Z,15.60
2022-12-09T03:30:25.867Z,15.30
2022-12-09T03:32:55.649Z,16.97
2022-12-09T03:35:30.426Z,14.23
2022-12-09T03:38:01.875Z,14.93
2022-12-09T03:40:31.244Z,15.83
2022-12-09T03:43:16.316Z,16.03
2022-12-09T03:45:43.866Z,15.17
2022-12-09T03:48:11.740Z,14.63
2022-12-09T03:50:52.819Z,15.27
2022-12-09T03:53:27.664Z,15.43
2022-12-09T03:56:10.993Z,17.20
2022-12-09T03:58:41.268Z,14.83
2022-12-09T04:01:09.666Z,18.37
2022-12-09T04:03:38.688Z,18.03
2022-12-09T04:06:06.368Z,15.73
2022-12-09T04:08:33.827Z,17.10
2022-12-09T04:11:01.044Z,17.47
2022-12-09T04:13:28.232Z,16.00
2022-12-09T04:15:55.423Z,17.00
2022-12-09T04:18:22.685Z,18.47
2022-12-09T04:20:49.916Z,17.57
2022-12-09T04:23:17.056Z,19.57
2022-12-09T04:25:44.094Z,19.17
2022-12-09T04:28:11.389Z,16.60
2022-12-09T04:30:38.654Z,19.07
2022-12-09T04:33:06.128Z,19.30
2022-12-09T04:35:33.173Z,17.67
2022-12-09T04:38:00.701Z,18.13
2022-12-09T04:40:27.835Z,16.60
2022-12-09T04:42:54.912Z,19.07
2022-12-09T04:45:22.255Z,18.03
2022-12-09T04:47:49.540Z,17.60
2022-12-09T04:50:17.333Z,17.77
2022-12-09T04:52:44.588Z,17.40
2022-12-09T04:55:14.216Z,16.07
2022-12-09T04:57:41.708Z,15.37
2022-12-09T05:00:10.206Z,17.07
2022-12-09T05:02:37.576Z,15.93
2022-12-09T05:05:05.087Z,16.80
2022-12-09T05:07:32.929Z,18.20
2022-12-09T05:10:00.417Z,18.33
2022-12-09T05:12:27.650Z,17.20
2022-12-09T05:14:54.668Z,18.80
2022-12-09T05:17:21.899Z,18.03
2022-12-09T05:19:49.165Z,20.60
2022-12-09T05:22:18.361Z,18.90
2022-12-09T05:24:47.466Z,18.70
2022-12-09T05:27:15.707Z,21.17
2022-12-09T05:29:43.134Z,20.20
2022-12-09T05:32:10.488Z,18.60
2022-12-09T05:34:38.151Z,21.10
2022-12-09T05:37:05.494Z,20.10
2022-12-09T05:39:32.753Z,18.43
2022-12-09T05:41:59.971Z,20.10
2022-12-09T05:44:27.371Z,18.63
2022-12-09T05:46:54.863Z,17.77
2022-12-09T05:49:22.124Z,17.63
2022-12-09T05:51:49.657Z,17.63
2022-12-09T05:54:16.788Z,16.20
2022-12-09T05:56:48.150Z,16.10
2022-12-09T05:59:16.287Z,16.90
2022-12-09T06:01:43.443Z,17.47
2022-12-09T06:04:11.086Z,15.67
2022-12-09T06:06:38.784Z,15.77
2022-12-09T06:09:11.711Z,22.63
2022-12-09T06:11:40.374Z,73.97
2022-12-09T06:14:09.051Z,52.87
2022-12-09T06:16:36.734Z,56.03
2022-12-09T06:19:05.861Z,54.40
2022-12-09T06:21:33.095Z,48.17
2022-12-09T06:24:00.671Z,42.80
2022-12-09T06:26:30.218Z,32.80
2022-12-09T06:28:58.507Z,33.67
2022-12-09T06:31:27.686Z,31.43
2022-12-09T06:33:57.603Z,27.87
2022-12-09T06:36:27.009Z,27.60
2022-12-09T06:38:55.463Z,25.30
2022-12-09T06:41:23.348Z,23.07
2022-12-09T06:43:50.789Z,22.80
2022-12-09T06:46:26.310Z,20.57
2022-12-09T06:48:55.807Z,19.17
2022-12-09T06:51:25.127Z,19.33
2022-12-09T06:53:52.737Z,19.10
2022-12-09T06:56:20.305Z,16.30
2022-12-09T06:58:48.284Z,19.10
2022-12-09T07:01:18.581Z,14.50
2022-12-09T07:03:49.131Z,16.10
2022-12-09T07:06:40.457Z,17.77
2022-12-09T07:09:11.430Z,15.53
2022-12-09T07:11:40.491Z,16.00
2022-12-09T07:14:08.247Z,16.13
2022-12-09T07:16:35.911Z,14.60
2022-12-09T07:19:04.362Z,15.93
2022-12-09T07:21:32.051Z,15.30
2022-12-09T07:24:01.415Z,14.50
2022-12-09T07:26:32.770Z,14.00
2022-12-09T07:29:03.776Z,16.03
2022-12-09T07:31:31.906Z,14.70
2022-12-09T07:34:00.070Z,15.00
2022-12-09T07:36:29.667Z,13.87
2022-12-09T07:39:02.342Z,14.97
2022-12-09T07:41:29.728Z,14.97
2022-12-09T07:43:57.304Z,14.70
2022-12-09T07:46:27.612Z,15.20
2022-12-09T07:48:56.025Z,12.57
2022-12-09T07:51:25.181Z,14.60
2022-12-09T07:53:53.770Z,13.50
2022-12-09T07:56:22.389Z,13.80
2022-12-09T07:58:53.380Z,13.50
2022-12-09T08:01:26.978Z,13.20
2022-12-09T08:03:55.688Z,14.33
2022-12-09T08:06:25.168Z,13.93
2022-12-09T08:08:53.226Z,14.23
2022-12-09T08:11:24.440Z,16.80
2022-12-09T08:13:52.617Z,14.40
2022-12-09T08:16:22.133Z,13.00
2022-12-09T08:18:51.602Z,15.77
2022-12-09T08:21:23.391Z,13.50
2022-12-09T08:23:51.523Z,13.90
2022-12-09T08:26:21.575Z,14.93
2022-12-09T08:28:49.545Z,14.50
2022-12-09T08:31:19.868Z,13.73
2022-12-09T08:33:48.198Z,16.10
2022-12-09T08:36:21.159Z,13.50
2022-12-09T08:38:48.785Z,14.10
2022-12-09T08:41:22.259Z,12.83
2022-12-09T08:43:50.047Z,13.17
2022-12-09T08:46:17.310Z,12.83
2022-12-09T08:48:44.764Z,15.50
2022-12-09T08:51:12.708Z,15.37
2022-12-09T08:53:40.666Z,13.47
2022-12-09T08:56:12.902Z,13.17
2022-12-09T08:58:41.194Z,15.80
2022-12-09T09:01:15.608Z,14.20
2022-12-09T09:03:43.035Z,14.43
2022-12-09T09:06:11.361Z,14.30
2022-12-09T09:08:39.608Z,13.63
2022-12-09T09:11:16.302Z,13.80
2022-12-09T09:13:46.216Z,13.93
2022-12-09T09:16:18.684Z,13.70
2022-12-09T09:18:46.554Z,14.43
2022-12-09T09:21:16.082Z,15.83
2022-12-09T09:23:43.825Z,14.20
2022-12-09T09:26:20.084Z,12.73
2022-12-09T09:28:48.070Z,14.17
2022-12-09T09:31:18.431Z,13.17
2022-12-09T09:33:47.032Z,13.93
2022-12-09T09:36:21.824Z,13.80
2022-12-09T09:38:50.797Z,14.43
2022-12-09T09:41:40.134Z,15.70
2022-12-09T09:44:28.127Z,14.20
2022-12-09T09:46:56.752Z,13.60
2022-12-09T09:49:51.123Z,15.27
2022-12-09T09:52:28.212Z,14.47
2022-12-09T09:54:55.833Z,14.30
2022-12-09T09:57:32.682Z,17.27
2022-12-09T10:00:14.432Z,14.70
2022-12-09T10:03:02.570Z,13.33
2022-12-09T10:05:35.957Z,14.37
2022-12-09T10:08:21.883Z,16.67
2022-12-09T10:11:11.225Z,14.10
2022-12-09T10:14:07.341Z,16.23
2022-12-09T10:16:56.624Z,16.30
2022-12-09T10:19:30.092Z,15.30
2022-12-09T10:21:59.942Z,13.93
2022-12-09T10:24:39.159Z,16.40
2022-12-09T10:27:27.789Z,15.13
2022-12-09T10:30:12.671Z,17.73
2022-12-09T10:32:40.555Z,15.20
2022-12-09T10:35:22.663Z,16.63
2022-12-09T10:37:52.852Z,16.97
2022-12-09T10:40:38.921Z,15.00
2022-12-09T10:43:41.294Z,14.00
2022-12-09T10:46:21.504Z,15.10
2022-12-09T10:48:49.758Z,16.73
2022-12-09T10:51:21.898Z,14.90
2022-12-09T10:54:06.361Z,16.17
2022-12-09T10:56:36.816Z,16.70
2022-12-09T10:59:15.978Z,15.37
2022-12-09T11:02:01.975Z,14.97
2022-12-09T11:04:42.121Z,15.53
2022-12-09T11:07:12.997Z,15.90
2022-12-09T11:09:40.572Z,13.90
2022-12-09T11:12:28.590Z,16.60
2022-12-09T11:14:59.079Z,14.43
2022-12-09T11:17:28.561Z,15.40
2022-12-09T11:20:18.614Z,14.50
2022-12-09T11:22:58.020Z,16.33
2022-12-09T11:25:28.782Z,15.97
2022-12-09T11:28:02.131Z,16.23
2022-12-09T11:30:57.839Z,16.00
2022-12-09T11:33:35.812Z,14.73
2022-12-09T11:36:09.718Z,15.63
2022-12-09T11:38:43.884Z,14.47
2022-12-09T11:41:37.662Z,16.17
2022-12-09T11:44:30.447Z,14.90
2022-12-09T11:48:22.638Z,15.90
2022-12-09T11:50:32.645Z,15.40
2022-12-09T11:53:39.305Z,16.93
2022-12-09T11:56:32.959Z,15.13
2022-12-09T11:59:13.951Z,15.80
2022-12-09T12:01:58.970Z,18.23
2022-12-09T12:04:49.545Z,16.23
2022-12-09T12:07:23.064Z,23.43
2022-12-09T12:09:56.579Z,22.60
2022-12-09T12:12:44.240Z,21.93
2022-12-09T12:15:47.198Z,20.60
2022-12-09T12:18:20.354Z,20.03
2022-12-09T12:21:02.568Z,20.00
2022-12-09T12:23:32.356Z,17.63
2022-12-09T12:26:25.054Z,19.37
2022-12-09T12:29:07.840Z,17.67
2022-12-09T12:31:43.973Z,19.10
2022-12-09T12:34:51.145Z,17.20
2022-12-09T12:37:18.382Z,18.13
2022-12-09T12:39:48.310Z,17.47
2022-12-09T12:42:39.555Z,16.93
2022-12-09T12:45:37.402Z,19.17
2022-12-09T12:48:27.820Z,19.30
2022-12-09T12:51:19.394Z,17.70
2022-12-09T12:54:19.782Z,16.60
2022-12-09T12:57:09.616Z,17.17
2022-12-09T12:59:59.739Z,17.93
2022-12-09T13:02:38.358Z,17.27
2022-12-09T13:05:16.146Z,16.40
2022-12-09T13:08:01.716Z,18.67
2022-12-09T13:10:34.434Z,16.40
2022-12-09T13:13:02.999Z,16.97
2022-12-09T13:15:52.806Z,19.47
2022-12-09T13:18:28.934Z,16.37
2022-12-09T13:21:00.783Z,17.43
2022-12-09T13:23:46.566Z,16.90
2022-12-09T13:26:31.116Z,17.03
2022-12-09T13:29:19.067Z,17.50
2022-12-09T13:31:57.901Z,17.37
2022-12-09T13:34:38.809Z,17.10
2022-12-09T13:37:25.877Z,16.33
2022-12-09T13:39:58.038Z,15.07
2022-12-09T13:43:03.364Z,16.67
2022-12-09T13:45:36.272Z,17.00
2022-12-09T13:48:26.445Z,15.83
2022-12-09T13:50:57.793Z,16.20
2022-12-09T13:53:32.315Z,17.77
2022-12-09T13:56:24.079Z,15.90
2022-12-09T13:59:15.666Z,15.93
2022-12-09T14:01:55.020Z,14.93
2022-12-09T14:04:34.968Z,14.70
2022-12-09T14:07:26.803Z,15.70
2022-12-09T14:09:56.489Z,15.90
2022-12-09T14:12:26.316Z,15.67
2022-12-09T14:14:57.647Z,15.27
2022-12-09T14:17:30.273Z,15.70
2022-12-09T14:19:57.247Z,15.80
2022-12-09T14:22:24.211Z,16.87
2022-12-09T14:24:53.650Z,14.97
2022-12-09T14:27:31.820Z,16.47
2022-12-09T14:30:41.050Z,14.93
2022-12-09T14:33:29.623Z,15.10
2022-12-09T14:36:06.266Z,14.90
2022-12-09T14:39:08.309Z,16.20
2022-12-09T14:41:56.292Z,17.03
2022-12-09T14:44:32.192Z,16.00
2022-12-09T14:47:20.543Z,13.93
2022-12-09T14:49:49.614Z,14.30
2022-12-09T14:52:27.332Z,15.10
2022-12-09T14:54:56.365Z,14.20
2022-12-09T14:57:37.638Z,15.00
2022-12-09T15:00:07.077Z,16.43
2022-12-09T15:02:34.499Z,16.40
2022-12-09T15:05:02.834Z,15.30
2022-12-09T15:07:34.372Z,15.63
2022-12-09T15:10:06.894Z,14.47
2022-12-09T15:12:42.835Z,15.57
2022-12-09T15:15:19.029Z,14.20
2022-12-09T15:17:59.142Z,15.10
2022-12-09T15:20:35.690Z,15.80
2022-12-09T15:23:04.909Z,13.87
2022-12-09T15:25:33.703Z,15.93
2022-12-09T15:28:02.722Z,14.97
2022-12-09T15:30:35.965Z,15.07
2022-12-09T15:33:04.285Z,16.90
2022-12-09T15:35:36.167Z,15.60
2022-12-09T15:38:07.236Z,15.17
2022-12-09T15:40:36.912Z,16.17
2022-12-09T15:43:10.075Z,14.47
2022-12-09T15:45:39.207Z,14.47
2022-12-09T15:48:14.442Z,16.40
2022-12-09T15:50:51.072Z,18.50
2022-12-09T15:53:28.055Z,29.40
2022-12-09T15:56:07.636Z,21.80
2022-12-09T15:58:44.797Z,29.80
2022-12-09T16:01:22.796Z,25.23
2022-12-09T16:03:51.726Z,27.17
2022-12-09T16:06:28.931Z,28.57
2022-12-09T16:08:56.098Z,25.30
2022-12-09T16:11:48.566Z,24.63
2022-12-09T16:14:21.012Z,24.60
2022-12-09T16:16:54.711Z,23.90
2022-12-09T16:19:41.035Z,22.07
2022-12-09T16:22:15.732Z,20.03
2022-12-09T16:27:37.439Z,20.90
2022-12-09T16:30:13.597Z,19.83
2022-12-09T16:32:51.571Z,20.20
2022-12-09T16:35:40.980Z,20.80
2022-12-09T16:38:10.742Z,21.30
2022-12-09T16:40:43.642Z,21.50
2022-12-09T16:43:17.074Z,21.33
2022-12-09T16:45:54.317Z,22.03
2022-12-09T16:48:23.591Z,23.30
2022-12-09T16:51:11.782Z,24.10
2022-12-09T16:53:44.615Z,23.70
2022-12-09T16:56:23.854Z,24.07
2022-12-09T16:58:51.457Z,22.60
2022-12-09T17:01:20.435Z,23.47
2022-12-09T17:04:23.235Z,26.27
2022-12-09T17:06:50.582Z,22.80
2022-12-09T17:09:17.660Z,27.70
2022-12-09T17:11:48.775Z,26.27
2022-12-09T17:14:17.551Z,27.50
2022-12-09T17:16:45.004Z,24.47
2022-12-09T17:19:12.095Z,25.90
2022-12-09T17:21:39.258Z,27.80
2022-12-09T17:24:06.748Z,26.20
2022-12-09T17:26:33.848Z,28.73
2022-12-09T17:29:02.069Z,28.80
2022-12-09T17:31:29.937Z,28.57
2022-12-09T17:33:57.721Z,28.47
2022-12-09T17:36:24.823Z,28.87
2022-12-09T17:38:51.874Z,31.00
2022-12-09T17:41:23.537Z,27.80
2022-12-09T17:43:50.791Z,25.80
2022-12-09T17:46:18.194Z,30.70
2022-12-09T17:48:45.576Z,29.40
2022-12-09T17:51:14.992Z,28.67
2022-12-09T17:53:43.353Z,29.80
2022-12-09T17:56:16.021Z,28.37
2022-12-09T17:58:43.806Z,30.60
2022-12-09T18:01:19.414Z,28.33
2022-12-09T18:03:56.128Z,27.80
2022-12-09T18:06:27.411Z,28.00
2022-12-09T18:08:54.835Z,27.77
2022-12-09T18:11:22.555Z,26.87
2022-12-09T18:13:49.951Z,29.67
2022-12-09T18:16:17.812Z,26.20
2022-12-09T18:18:45.194Z,25.60
2022-12-09T18:21:15.991Z,27.97
2022-12-09T18:23:43.560Z,25.07
2022-12-09T18:26:13.060Z,25.67
2022-12-09T18:28:40.378Z,24.83
2022-12-09T18:31:08.723Z,24.80
2022-12-09T18:33:38.556Z,22.43
2022-12-09T18:36:07.409Z,24.57
2022-12-09T18:38:34.722Z,27.30
2022-12-09T18:41:01.771Z,25.37
2022-12-09T18:43:31.659Z,25.50
2022-12-09T18:46:07.559Z,24.53
2022-12-09T18:48:35.172Z,24.60
2022-12-09T18:51:02.323Z,25.60
2022-12-09T18:53:30.295Z,25.90
2022-12-09T18:55:57.328Z,25.37
2022-12-09T18:58:49.607Z,23.20
2022-12-09T19:01:24.028Z,22.40
2022-12-09T19:03:54.189Z,23.50
2022-12-09T19:06:24.433Z,23.30
2022-12-09T19:08:55.208Z,22.70
2022-12-09T19:11:24.444Z,22.77
2022-12-09T19:13:51.548Z,23.47
2022-12-09T19:16:19.036Z,22.10
2022-12-09T19:18:46.679Z,22.20
2022-12-09T19:21:16.435Z,22.13
2022-12-09T19:23:45.182Z,21.70
2022-12-09T19:26:33.722Z,22.83
2022-12-09T19:29:04.196Z,21.03
2022-12-09T19:31:36.148Z,26.30
2022-12-09T19:34:14.173Z,20.97
2022-12-09T19:36:41.753Z,23.57
2022-12-09T19:39:10.108Z,25.20
2022-12-09T19:41:40.439Z,23.97
2022-12-09T19:44:21.550Z,21.10
2022-12-09T19:46:57.704Z,25.83
2022-12-09T19:49:24.914Z,26.20
2022-12-09T19:51:53.271Z,23.23
2022-12-09T19:54:26.702Z,23.27
2022-12-09T19:56:56.122Z,25.87
2022-12-09T19:59:23.314Z,23.30
2022-12-09T20:01:50.704Z,25.13
2022-12-09T20:07:08.591Z,24.50
2022-12-09T20:09:36.809Z,25.57
2022-12-09T20:12:04.085Z,25.00
2022-12-09T20:14:31.507Z,25.37
2022-12-09T20:16:58.609Z,25.47
2022-12-09T20:19:25.656Z,25.53
2022-12-09T20:21:52.893Z,26.73
2022-12-09T20:24:19.954Z,24.50
2022-12-09T20:26:47.036Z,29.17
2022-12-09T20:29:14.124Z,28.70
2022-12-09T20:31:42.772Z,28.63
2022-12-09T20:34:14.885Z,26.37
2022-12-09T20:36:45.905Z,26.50
2022-12-09T20:39:16.703Z,26.90
2022-12-09T20:41:44.580Z,28.70
2022-12-09T20:44:13.188Z,29.70
2022-12-09T20:46:41.489Z,27.10
2022-12-09T20:49:10.057Z,27.50
2022-12-09T20:51:39.429Z,27.07
2022-12-09T20:54:08.480Z,24.57
2022-12-09T20:56:35.852Z,24.67
2022-12-09T20:59:04.791Z,26.97
2022-12-09T21:01:35.921Z,24.20
2022-12-09T21:04:06.140Z,23.33
2022-12-09T21:06:36.977Z,23.03
2022-12-09T21:09:06.779Z,24.30
2022-12-09T21:11:34.081Z,24.00
2022-12-09T21:14:03.618Z,22.43
2022-12-09T21:16:37.239Z,25.40
2022-12-09T21:19:06.034Z,22.20
2022-12-09T21:21:35.298Z,24.53
2022-12-09T21:24:04.371Z,21.10
2022-12-09T21:26:31.687Z,22.77
2022-12-09T21:29:01.115Z,26.33
2022-12-09T21:31:35.622Z,25.33
2022-12-09T21:34:05.158Z,23.57
2022-12-09T21:36:40.342Z,24.60
2022-12-09T21:39:09.345Z,27.23
2022-12-09T21:41:37.837Z,27.00
2022-12-09T21:44:06.223Z,24.93
2022-12-09T21:46:36.761Z,25.70
2022-12-09T21:49:06.095Z,26.83
2022-12-09T21:51:34.862Z,25.07
2022-12-09T21:54:02.342Z,29.57
2022-12-09T21:56:31.368Z,29.53
2022-12-09T21:58:59.150Z,25.63
2022-12-09T22:01:32.080Z,26.67
2022-12-09T22:04:00.772Z,28.00
2022-12-09T22:06:28.742Z,26.33
2022-12-09T22:08:58.139Z,29.20
2022-12-09T22:11:27.663Z,26.33
2022-12-09T22:14:00.265Z,27.63
2022-12-09T22:16:30.659Z,27.53
2022-12-09T22:18:59.429Z,27.17
2022-12-09T22:21:29.398Z,30.07
2022-12-09T22:23:59.244Z,27.70
2022-12-09T22:26:27.124Z,30.10
2022-12-09T22:28:54.476Z,25.37
2022-12-09T22:31:28.200Z,28.13
2022-12-09T22:34:00.503Z,25.70
2022-12-09T22:36:27.877Z,26.87
2022-12-09T22:38:55.536Z,26.60
2022-12-09T22:41:25.814Z,26.17
2022-12-09T22:43:54.881Z,28.33
2022-12-09T22:46:28.744Z,24.67
2022-12-09T22:48:57.367Z,25.27
2022-12-09T22:51:27.124Z,25.30
2022-12-09T22:53:57.129Z,24.97
2022-12-09T22:56:25.144Z,22.70
2022-12-09T22:58:52.801Z,26.13
2022-12-09T23:01:28.981Z,24.87
2022-12-09T23:03:57.557Z,23.70
2022-12-09T23:06:26.123Z,22.43
2022-12-09T23:08:53.588Z,26.27
2022-12-09T23:11:23.671Z,24.50
2022-12-09T23:13:51.203Z,26.60
2022-12-09T23:16:21.167Z,23.93
2022-12-09T23:18:48.566Z,24.77
2022-12-09T23:21:24.898Z,28.40
2022-12-09T23:23:53.677Z,23.93
2022-12-09T23:26:22.464Z,27.57
2022-12-09T23:28:52.004Z,27.87
2022-12-09T23:31:21.728Z,27.10
2022-12-09T23:33:50.365Z,23.67
2022-12-09T23:36:32.115Z,24.70
2022-12-09T23:39:00.157Z,27.33
2022-12-09T23:41:27.810Z,27.07
2022-12-09T23:43:55.126Z,25.07
2022-12-09T23:46:24.744Z,26.47
2022-12-09T23:48:52.742Z,23.97
2022-12-09T23:51:29.303Z,24.10
2022-12-09T23:53:58.767Z,25.23
2022-12-09T23:56:28.554Z,24.60
2022-12-09T23:58:57.902Z,24.53
